createdAt,value
2022-09-10T00:00:32.552Z,309.50
2022-09-10T00:01:32.610Z,300.60
2022-09-10T00:02:32.589Z,305.60
2022-09-10T00:03:32.567Z,311.50
2022-09-10T00:04:32.502Z,305.40
2022-09-10T00:05:32.528Z,309.70
2022-09-10T00:06:32.496Z,319.60
2022-09-10T00:07:32.513Z,316.00
2022-09-10T00:08:32.513Z,322.00
2022-09-10T00:09:32.467Z,316.80
2022-09-10T00:10:32.453Z,317.40
2022-09-10T00:11:32.494Z,327.20
2022-09-10T00:12:32.432Z,317.40
2022-09-10T00:13:32.471Z,315.60
2022-09-10T00:14:32.393Z,321.60
2022-09-10T00:15:32.382Z,322.40
2022-09-10T00:16:32.444Z,326.00
2022-09-10T00:17:32.402Z,317.80
2022-09-10T00:18:32.393Z,320.00
2022-09-10T00:19:32.350Z,325.60
2022-09-10T00:20:32.336Z,331.10
2022-09-10T00:21:32.408Z,336.40
2022-09-10T00:22:32.313Z,328.90
2022-09-10T00:23:32.329Z,336.20
2022-09-10T00:24:32.298Z,337.30
2022-09-10T00:25:32.285Z,340.40
2022-09-10T00:26:32.269Z,332.10
2022-09-10T00:27:32.254Z,335.90
2022-09-10T00:28:32.280Z,336.10
2022-09-10T00:29:32.253Z,345.80
2022-09-10T00:30:32.212Z,346.30
2022-09-10T00:31:32.274Z,344.00
2022-09-10T00:32:32.203Z,345.30
2022-09-10T00:33:32.220Z,344.50
2022-09-10T00:34:32.170Z,352.40
2022-09-10T00:35:32.168Z,343.60
2022-09-10T00:36:32.165Z,340.60
2022-09-10T00:37:32.142Z,353.40
2022-09-10T00:38:32.169Z,352.30
2022-09-10T00:39:32.174Z,346.70
2022-09-10T00:40:32.092Z,344.80
2022-09-10T00:41:32.107Z,340.10
2022-09-10T00:42:32.081Z,348.40
2022-09-10T00:43:32.112Z,344.10
2022-09-10T00:44:35.544Z,348.60
2022-09-10T00:45:32.071Z,347.60
2022-09-10T00:46:32.018Z,351.10
2022-09-10T00:47:32.053Z,349.10
2022-09-10T00:48:32.057Z,354.20
2022-09-10T00:49:31.995Z,350.90
2022-09-10T00:50:31.990Z,360.80
2022-09-10T00:51:31.979Z,352.30
2022-09-10T00:52:33.636Z,373.70
2022-09-10T00:53:31.981Z,364.00
2022-09-10T00:54:31.953Z,383.60
2022-09-10T00:55:31.945Z,389.00
2022-09-10T00:56:31.926Z,401.70
2022-09-10T00:57:31.933Z,406.70
2022-09-10T00:58:32.011Z,414.50
2022-09-10T00:59:31.890Z,413.50
2022-09-10T01:00:31.939Z,412.10
2022-09-10T01:01:31.868Z,409.70
2022-09-10T01:02:31.850Z,397.10
2022-09-10T01:03:31.878Z,391.40
2022-09-10T01:04:31.837Z,376.00
2022-09-10T01:05:31.835Z,369.20
2022-09-10T01:06:31.804Z,356.30
2022-09-10T01:07:31.802Z,350.70
2022-09-10T01:08:31.784Z,345.30
2022-09-10T01:09:31.815Z,351.40
2022-09-10T01:10:31.762Z,358.30
2022-09-10T01:11:33.277Z,354.90
2022-09-10T01:12:35.670Z,357.20
2022-09-10T01:13:31.725Z,359.60
2022-09-10T01:14:31.744Z,350.40
2022-09-10T01:15:31.697Z,352.60
2022-09-10T01:16:31.719Z,354.10
2022-09-10T01:17:31.670Z,346.20
2022-09-10T01:18:31.755Z,354.10
2022-09-10T01:19:31.698Z,360.60
2022-09-10T01:20:31.637Z,383.10
2022-09-10T01:21:31.656Z,408.60
2022-09-10T01:22:31.632Z,419.40
2022-09-10T01:23:31.648Z,422.30
2022-09-10T01:24:31.594Z,420.40
2022-09-10T01:25:31.599Z,395.60
2022-09-10T01:26:31.578Z,375.40
2022-09-10T01:27:31.565Z,387.90
2022-09-10T01:28:31.656Z,387.60
2022-09-10T01:29:31.539Z,386.20
2022-09-10T01:30:31.548Z,385.30
2022-09-10T01:31:31.559Z,395.90
2022-09-10T01:32:31.523Z,391.90
2022-09-10T01:33:31.572Z,381.90
2022-09-10T01:34:31.505Z,391.40
2022-09-10T01:35:31.492Z,378.00
2022-09-10T01:36:31.463Z,385.40
2022-09-10T01:37:31.483Z,383.70
2022-09-10T01:38:31.576Z,379.30
2022-09-10T01:39:31.446Z,373.50
2022-09-10T01:40:31.426Z,371.00
2022-09-10T01:41:31.420Z,378.60
2022-09-10T01:42:31.414Z,391.50
2022-09-10T01:43:31.440Z,418.20
2022-09-10T01:44:31.392Z,424.30
2022-09-10T01:45:31.443Z,425.50
2022-09-10T01:46:31.364Z,423.50
2022-09-10T01:47:31.340Z,427.80
2022-09-10T01:48:31.383Z,429.20
2022-09-10T01:49:31.331Z,426.60
2022-09-10T01:50:31.323Z,423.10
2022-09-10T01:51:31.323Z,417.20
2022-09-10T01:52:31.287Z,419.80
2022-09-10T01:53:31.315Z,403.80
2022-09-10T01:54:31.271Z,407.60
2022-09-10T01:55:31.266Z,418.40
2022-09-10T01:56:31.272Z,406.70
2022-09-10T01:57:31.264Z,419.40
2022-09-10T01:58:31.261Z,434.70
2022-09-10T01:59:31.231Z,455.40
2022-09-10T02:00:31.219Z,459.20
2022-09-10T02:01:31.201Z,471.10
2022-09-10T02:02:31.188Z,485.30
2022-09-10T02:03:31.212Z,486.10
2022-09-10T02:04:31.150Z,493.10
2022-09-10T02:05:31.174Z,495.30
2022-09-10T02:06:31.155Z,492.90
2022-09-10T02:07:31.130Z,495.80
2022-09-10T02:08:31.249Z,501.20
2022-09-10T02:09:31.104Z,497.90
2022-09-10T02:10:31.102Z,496.70
2022-09-10T02:11:31.092Z,498.90
2022-09-10T02:12:31.092Z,494.70
2022-09-10T02:13:31.118Z,496.60
2022-09-10T02:14:31.066Z,489.30
2022-09-10T02:15:31.044Z,492.80
2022-09-10T02:16:31.106Z,492.70
2022-09-10T02:17:31.023Z,488.90
2022-09-10T02:18:31.037Z,500.80
2022-09-10T02:19:31.023Z,487.10
2022-09-10T02:20:30.987Z,483.20
2022-09-10T02:21:30.987Z,485.60
2022-09-10T02:22:30.970Z,482.80
2022-09-10T02:23:30.995Z,480.90
2022-09-10T02:24:30.950Z,491.20
2022-09-10T02:25:30.958Z,481.50
2022-09-10T02:26:30.924Z,481.50
2022-09-10T02:27:30.905Z,476.00
2022-09-10T02:28:30.951Z,481.10
2022-09-10T02:29:30.888Z,487.00
2022-09-10T02:30:30.889Z,479.80
2022-09-10T02:31:30.858Z,488.80
2022-09-10T02:32:30.864Z,482.20
2022-09-10T02:33:30.887Z,487.70
2022-09-10T02:34:30.840Z,476.30
2022-09-10T02:35:30.826Z,480.50
2022-09-10T02:36:30.826Z,494.10
2022-09-10T02:37:30.817Z,481.00
2022-09-10T02:38:30.811Z,474.50
2022-09-10T02:39:30.808Z,461.70
2022-09-10T02:40:30.760Z,451.50
2022-09-10T02:41:30.749Z,457.30
2022-09-10T02:42:30.742Z,452.70
2022-09-10T02:43:30.768Z,453.50
2022-09-10T02:44:30.755Z,470.10
2022-09-10T02:45:30.739Z,459.60
2022-09-10T02:46:30.704Z,436.30
2022-09-10T02:47:30.694Z,439.80
2022-09-10T02:48:30.722Z,427.70
2022-09-10T02:49:30.662Z,417.90
2022-09-10T02:50:30.640Z,409.00
2022-09-10T02:51:30.627Z,407.00
2022-09-10T02:52:30.617Z,414.00
2022-09-10T02:53:30.649Z,420.10
2022-09-10T02:54:30.620Z,425.60
2022-09-10T02:55:30.610Z,409.80
2022-09-10T02:56:30.585Z,402.00
2022-09-10T02:57:30.608Z,396.10
2022-09-10T02:58:30.638Z,396.90
2022-09-10T02:59:30.544Z,400.60
2022-09-10T03:00:30.547Z,398.50
2022-09-10T03:01:30.594Z,402.50
2022-09-10T03:02:30.531Z,401.70
2022-09-10T03:03:30.543Z,395.30
2022-09-10T03:04:30.517Z,390.40
2022-09-10T03:05:30.569Z,416.50
2022-09-10T03:06:30.504Z,416.20
2022-09-10T03:07:30.472Z,416.80
2022-09-10T03:08:30.533Z,413.70
2022-09-10T03:09:30.437Z,416.00
2022-09-10T03:10:30.433Z,412.50
2022-09-10T03:11:30.434Z,419.70
2022-09-10T03:12:30.417Z,418.50
2022-09-10T03:13:30.435Z,418.70
2022-09-10T03:14:30.400Z,426.70
2022-09-10T03:15:30.369Z,424.00
2022-09-10T03:16:30.422Z,422.50
2022-09-10T03:17:30.343Z,421.20
2022-09-10T03:18:30.516Z,403.50
2022-09-10T03:19:30.325Z,407.20
2022-09-10T03:20:30.325Z,396.00
2022-09-10T03:21:30.313Z,393.30
2022-09-10T03:22:30.293Z,397.30
2022-09-10T03:23:30.311Z,395.80
2022-09-10T03:24:30.292Z,406.30
2022-09-10T03:25:30.282Z,416.90
2022-09-10T03:26:30.247Z,425.80
2022-09-10T03:27:30.255Z,431.30
2022-09-10T03:28:30.283Z,432.00
2022-09-10T03:29:30.220Z,412.70
2022-09-10T03:30:30.236Z,403.70
2022-09-10T03:31:30.233Z,399.00
2022-09-10T03:32:30.198Z,400.00
2022-09-10T03:33:30.202Z,402.40
2022-09-10T03:34:30.159Z,411.30
2022-09-10T03:35:30.152Z,421.20
2022-09-10T03:36:30.150Z,413.60
2022-09-10T03:37:30.128Z,414.80
2022-09-10T03:38:30.176Z,423.40
2022-09-10T03:39:30.107Z,432.60
2022-09-10T03:40:30.092Z,434.60
2022-09-10T03:41:30.085Z,431.60
2022-09-10T03:42:30.077Z,426.60
2022-09-10T03:43:30.083Z,429.40
2022-09-10T03:44:30.072Z,421.80
2022-09-10T03:45:30.097Z,426.80
2022-09-10T03:46:30.028Z,438.30
2022-09-10T03:47:30.019Z,457.20
2022-09-10T03:48:30.035Z,463.40
2022-09-10T03:49:29.989Z,455.80
2022-09-10T03:50:30.014Z,450.10
2022-09-10T03:51:29.965Z,458.90
2022-09-10T03:52:29.956Z,454.60
2022-09-10T03:53:29.962Z,478.50
2022-09-10T03:54:29.941Z,494.40
2022-09-10T03:55:29.929Z,501.90
2022-09-10T03:56:29.932Z,511.90
2022-09-10T03:57:29.929Z,511.70
2022-09-10T03:58:29.948Z,517.70
2022-09-10T03:59:29.897Z,529.50
2022-09-10T04:00:29.886Z,516.90
2022-09-10T04:01:29.851Z,534.00
2022-09-10T04:02:29.907Z,536.90
2022-09-10T04:03:29.880Z,532.70
2022-09-10T04:04:29.873Z,529.50
2022-09-10T04:05:29.832Z,520.90
2022-09-10T04:06:29.803Z,515.20
2022-09-10T04:07:29.825Z,505.70
2022-09-10T04:08:29.824Z,513.00
2022-09-10T04:09:29.788Z,506.40
2022-09-10T04:10:29.759Z,521.60
2022-09-10T04:11:29.748Z,524.20
2022-09-10T04:12:29.745Z,543.20
2022-09-10T04:13:29.749Z,547.00
2022-09-10T04:14:29.711Z,562.10
2022-09-10T04:15:29.695Z,565.00
2022-09-10T04:16:29.727Z,590.00
2022-09-10T04:17:29.671Z,584.80
2022-09-10T04:18:29.699Z,590.40
2022-09-10T04:19:29.656Z,575.60
2022-09-10T04:20:29.658Z,572.30
2022-09-10T04:21:29.623Z,555.00
2022-09-10T04:22:29.612Z,544.40
2022-09-10T04:23:29.641Z,534.50
2022-09-10T04:24:29.603Z,531.10
2022-09-10T04:25:29.592Z,531.40
2022-09-10T04:26:29.571Z,538.40
2022-09-10T04:27:29.579Z,541.00
2022-09-10T04:28:29.597Z,557.90
2022-09-10T04:29:29.545Z,555.80
2022-09-10T04:30:29.542Z,559.40
2022-09-10T04:31:29.608Z,563.10
2022-09-10T04:32:29.521Z,567.50
2022-09-10T04:33:29.548Z,570.40
2022-09-10T04:34:29.496Z,562.50
2022-09-10T04:35:29.464Z,560.90
2022-09-10T04:36:29.466Z,541.00
2022-09-10T04:37:29.511Z,526.30
2022-09-10T04:38:29.445Z,512.00
2022-09-10T04:39:29.498Z,516.90
2022-09-10T04:40:29.440Z,506.60
2022-09-10T04:41:29.416Z,508.60
2022-09-10T04:42:29.394Z,486.70
2022-09-10T04:43:29.405Z,471.00
2022-09-10T04:44:29.420Z,458.20
2022-09-10T04:45:29.381Z,436.80
2022-09-10T04:46:29.373Z,423.90
2022-09-10T04:47:29.359Z,408.80
2022-09-10T04:48:29.329Z,407.80
2022-09-10T04:49:29.348Z,414.70
2022-09-10T04:50:29.302Z,430.20
2022-09-10T04:51:29.279Z,449.40
2022-09-10T04:52:29.283Z,455.10
2022-09-10T04:53:29.273Z,468.50
2022-09-10T04:54:29.308Z,483.80
2022-09-10T04:55:29.245Z,509.90
2022-09-10T04:56:29.254Z,532.20
2022-09-10T04:57:29.239Z,554.30
2022-09-10T04:58:29.220Z,565.50
2022-09-10T04:59:29.237Z,572.80
2022-09-10T05:00:29.202Z,561.90
2022-09-10T05:01:29.187Z,553.40
2022-09-10T05:02:29.234Z,543.90
2022-09-10T05:03:29.166Z,545.20
2022-09-10T05:04:29.200Z,539.00
2022-09-10T05:05:29.131Z,538.80
2022-09-10T05:06:29.137Z,540.60
2022-09-10T05:07:29.107Z,544.40
2022-09-10T05:08:29.102Z,551.80
2022-09-10T05:09:29.133Z,559.70
2022-09-10T05:10:29.072Z,556.20
2022-09-10T05:11:29.049Z,552.70
2022-09-10T05:12:29.057Z,542.10
2022-09-10T05:13:29.048Z,527.90
2022-09-10T05:14:29.061Z,508.80
2022-09-10T05:15:29.020Z,502.30
2022-09-10T05:16:29.058Z,486.90
2022-09-10T05:17:29.030Z,486.50
2022-09-10T05:18:28.998Z,500.80
2022-09-10T05:19:28.994Z,505.50
2022-09-10T05:20:28.944Z,516.20
2022-09-10T05:21:28.941Z,526.80
2022-09-10T05:22:36.026Z,539.20
2022-09-10T05:23:29.918Z,527.70
2022-09-10T05:24:28.948Z,531.10
2022-09-10T05:25:28.913Z,527.10
2022-09-10T05:26:28.901Z,528.50
2022-09-10T05:27:28.879Z,531.10
2022-09-10T05:28:28.871Z,528.90
2022-09-10T05:29:28.863Z,528.70
2022-09-10T05:30:28.899Z,524.80
2022-09-10T05:31:28.855Z,519.80
2022-09-10T05:32:28.839Z,522.60
2022-09-10T05:33:28.815Z,523.50
2022-09-10T05:34:28.826Z,513.50
2022-09-10T05:35:28.798Z,513.50
2022-09-10T05:36:28.778Z,514.40
2022-09-10T05:37:28.767Z,512.80
2022-09-10T05:38:28.754Z,510.20
2022-09-10T05:39:28.793Z,510.50
2022-09-10T05:40:28.727Z,503.60
2022-09-10T05:41:28.710Z,510.90
2022-09-10T05:42:28.723Z,526.10
2022-09-10T05:43:28.702Z,522.40
2022-09-10T05:44:28.745Z,537.50
2022-09-10T05:45:28.736Z,535.30
2022-09-10T05:46:28.676Z,546.70
2022-09-10T05:47:28.645Z,551.00
2022-09-10T05:48:28.637Z,556.00
2022-09-10T05:49:28.645Z,568.30
2022-09-10T05:50:28.652Z,567.20
2022-09-10T05:51:28.596Z,563.60
2022-09-10T05:52:28.595Z,571.10
2022-09-10T05:53:28.582Z,580.40
2022-09-10T05:54:28.580Z,582.60
2022-09-10T05:55:28.612Z,587.00
2022-09-10T05:56:28.567Z,596.70
2022-09-10T05:57:28.526Z,594.80
2022-09-10T05:58:28.539Z,602.60
2022-09-10T05:59:28.524Z,620.20
2022-09-10T06:00:28.536Z,620.40
2022-09-10T06:01:28.491Z,618.90
2022-09-10T06:02:28.552Z,627.40
2022-09-10T06:03:28.474Z,630.20
2022-09-10T06:04:28.478Z,643.90
2022-09-10T06:05:28.487Z,642.60
2022-09-10T06:06:28.429Z,646.70
2022-09-10T06:07:28.437Z,643.20
2022-09-10T06:08:28.433Z,644.00
2022-09-10T06:09:28.415Z,639.40
2022-09-10T06:10:28.427Z,649.20
2022-09-10T06:11:28.381Z,649.50
2022-09-10T06:12:28.383Z,655.40
2022-09-10T06:13:28.356Z,657.40
2022-09-10T06:14:28.352Z,642.40
2022-09-10T06:15:28.363Z,643.90
2022-09-10T06:16:28.376Z,670.10
2022-09-10T06:17:28.299Z,674.70
2022-09-10T06:18:28.316Z,691.20
2022-09-10T06:19:28.296Z,701.60
2022-09-10T06:20:28.334Z,709.00
2022-09-10T06:21:28.531Z,705.30
2022-09-10T06:22:28.248Z,705.50
2022-09-10T06:23:28.251Z,715.00
2022-09-10T06:24:28.221Z,697.40
2022-09-10T06:25:28.250Z,683.80
2022-09-10T06:26:28.225Z,656.60
2022-09-10T06:27:28.215Z,623.90
2022-09-10T06:28:28.205Z,642.60
2022-09-10T06:29:28.186Z,618.50
2022-09-10T06:30:28.294Z,511.70
2022-09-10T06:31:28.150Z,265.00
2022-09-10T06:32:28.140Z,521.10
2022-09-10T06:33:28.142Z,140.90
2022-09-10T06:34:28.132Z,71.50
2022-09-10T06:35:28.151Z,75.90
2022-09-10T06:36:28.097Z,127.80
2022-09-10T06:37:28.077Z,141.10
2022-09-10T06:38:28.064Z,61.00
2022-09-10T06:39:28.056Z,89.50
2022-09-10T06:40:28.103Z,86.40
2022-09-10T06:41:28.036Z,168.90
2022-09-10T06:42:28.026Z,252.30
2022-09-10T06:43:28.010Z,168.50
2022-09-10T06:44:28.028Z,113.60
2022-09-10T06:45:28.081Z,100.30
2022-09-10T06:48:49.728Z,74.60
2022-09-10T06:49:28.959Z,74.20
2022-09-10T06:50:28.013Z,111.20
2022-09-10T06:51:27.939Z,69.80
2022-09-10T06:52:27.925Z,70.60
2022-09-10T06:53:27.894Z,65.00
2022-09-10T06:54:27.911Z,67.50
2022-09-10T06:55:27.936Z,60.90
2022-09-10T06:56:27.860Z,69.40
2022-09-10T06:57:27.861Z,82.60
2022-09-10T06:58:27.870Z,89.00
2022-09-10T06:59:27.853Z,102.10
2022-09-10T07:00:27.867Z,105.60
2022-09-10T07:01:27.878Z,92.20
2022-09-10T07:02:27.858Z,67.20
2022-09-10T07:03:27.804Z,61.80
2022-09-10T07:04:27.783Z,62.10
2022-09-10T07:05:27.807Z,51.60
2022-09-10T07:06:27.750Z,29.80
2022-09-10T07:07:27.746Z,21.80
2022-09-10T07:08:27.732Z,28.20
2022-09-10T07:09:27.722Z,36.20
2022-09-10T07:10:27.762Z,32.30
2022-09-10T07:11:27.712Z,36.80
2022-09-10T07:12:27.678Z,32.40
2022-09-10T07:13:27.678Z,42.00
2022-09-10T07:14:27.673Z,46.40
2022-09-10T07:15:27.696Z,32.00
2022-09-10T07:16:27.632Z,33.00
2022-09-10T07:17:31.581Z,39.00
2022-09-10T07:18:27.639Z,37.80
2022-09-10T07:19:27.626Z,36.50
2022-09-10T07:20:27.625Z,36.90
2022-09-10T07:21:27.596Z,29.90
2022-09-10T07:22:27.582Z,20.40
2022-09-10T07:23:27.560Z,14.30
2022-09-10T07:24:27.561Z,14.00
2022-09-10T07:25:27.582Z,18.20
2022-09-10T07:26:27.541Z,19.30
2022-09-10T07:27:27.546Z,17.10
2022-09-10T07:28:27.530Z,14.80
2022-09-10T07:29:27.513Z,15.10
2022-09-10T07:30:27.521Z,13.10
2022-09-10T07:31:27.471Z,11.90
2022-09-10T07:32:27.457Z,12.00
2022-09-10T07:33:27.473Z,11.10
2022-09-10T07:34:27.450Z,9.20
2022-09-10T07:35:27.474Z,9.70
2022-09-10T07:36:27.429Z,11.80
2022-09-10T07:37:27.435Z,12.10
2022-09-10T07:38:27.402Z,13.30
2022-09-10T07:39:27.395Z,18.50
2022-09-10T07:40:27.416Z,16.00
2022-09-10T07:41:27.359Z,15.70
2022-09-10T07:42:27.369Z,15.60
2022-09-10T07:43:27.359Z,17.30
2022-09-10T07:44:27.342Z,14.60
2022-09-10T07:45:27.370Z,14.20
2022-09-10T07:46:27.362Z,14.50
2022-09-10T07:47:27.295Z,13.20
2022-09-10T07:48:27.293Z,11.70
2022-09-10T07:49:27.280Z,14.50
2022-09-10T07:50:27.309Z,13.80
2022-09-10T07:51:27.247Z,13.20
2022-09-10T07:52:27.229Z,12.00
2022-09-10T07:53:27.241Z,11.70
2022-09-10T07:54:27.215Z,11.70
2022-09-10T07:55:27.263Z,11.70
2022-09-10T07:56:27.192Z,11.20
2022-09-10T07:57:27.182Z,11.80
2022-09-10T07:58:27.153Z,11.90
2022-09-10T07:59:27.170Z,10.70
2022-09-10T08:00:27.179Z,11.00
2022-09-10T08:01:27.206Z,11.20
2022-09-10T08:02:27.155Z,11.60
2022-09-10T08:03:27.131Z,10.10
2022-09-10T08:04:27.115Z,10.10
2022-09-10T08:05:27.138Z,10.80
2022-09-10T08:06:27.083Z,12.70
2022-09-10T08:07:27.081Z,10.90
2022-09-10T08:08:27.058Z,11.00
2022-09-10T08:09:27.061Z,10.70
2022-09-10T08:10:27.084Z,10.50
2022-09-10T08:11:27.053Z,17.90
2022-09-10T08:12:27.049Z,10.00
2022-09-10T08:13:27.028Z,10.00
2022-09-10T08:14:27.014Z,10.10
2022-09-10T08:15:27.061Z,24.60
2022-09-10T08:16:27.003Z,36.30
2022-09-10T08:17:27.001Z,856.60
2022-09-10T08:18:26.977Z,278.90
2022-09-10T08:19:26.956Z,11.40
2022-09-10T08:20:26.942Z,23.00
2022-09-10T08:21:26.961Z,50.40
2022-09-10T08:22:26.896Z,689.10
2022-09-10T08:23:26.894Z,1150.30
2022-09-10T08:24:26.905Z,916.90
2022-09-10T08:25:26.880Z,1999.90
2022-09-10T08:26:26.889Z,1518.50
2022-09-10T08:27:26.896Z,1677.60
2022-09-10T08:28:26.851Z,1260.20
2022-09-10T08:29:26.819Z,1042.50
2022-09-10T08:30:26.810Z,1418.60
2022-09-10T08:31:26.910Z,1999.90
2022-09-10T08:32:26.793Z,1999.90
2022-09-10T08:33:26.776Z,1999.90
2022-09-10T08:34:26.781Z,1999.90
2022-09-10T08:35:26.796Z,1999.90
2022-09-10T08:36:26.790Z,1999.90
2022-09-10T08:37:26.736Z,1999.90
2022-09-10T08:38:26.736Z,1999.90
2022-09-10T08:39:26.742Z,1999.90
2022-09-10T08:40:26.711Z,1999.90
2022-09-10T08:41:26.747Z,1021.20
2022-09-10T08:42:26.721Z,760.40
2022-09-10T08:43:26.692Z,494.90
2022-09-10T08:44:26.672Z,1057.70
2022-09-10T08:45:26.653Z,968.90
2022-09-10T08:46:26.701Z,1184.90
2022-09-10T08:47:26.626Z,1999.90
2022-09-10T08:48:26.636Z,1213.40
2022-09-10T08:49:26.632Z,637.70
2022-09-10T08:50:26.602Z,1999.90
2022-09-10T08:51:26.640Z,1698.00
2022-09-10T08:52:26.586Z,1999.90
2022-09-10T08:53:26.564Z,1999.90
2022-09-10T08:54:26.536Z,925.90
2022-09-10T08:55:26.543Z,1999.90
2022-09-10T08:56:26.534Z,1999.90
2022-09-10T08:57:26.574Z,1999.90
2022-09-10T08:58:26.506Z,1999.90
2022-09-10T08:59:26.494Z,1999.90
2022-09-10T09:00:26.498Z,1999.90
2022-09-10T09:01:26.534Z,1999.90
2022-09-10T09:02:47.656Z,1999.90
2022-09-10T09:03:27.442Z,1999.90
2022-09-10T09:04:26.422Z,1999.90
2022-09-10T09:05:26.437Z,1999.90
2022-09-10T09:06:26.473Z,1999.90
2022-09-10T09:07:26.417Z,1999.90
2022-09-10T09:08:26.405Z,1999.90
2022-09-10T09:09:26.379Z,1999.90
2022-09-10T09:10:26.382Z,1999.90
2022-09-10T09:11:26.379Z,1999.90
2022-09-10T09:12:26.387Z,1999.90
2022-09-10T09:13:26.353Z,1999.90
2022-09-10T09:14:26.338Z,1999.90
2022-09-10T09:15:26.321Z,1999.90
2022-09-10T09:16:26.306Z,1999.90
2022-09-10T09:17:26.340Z,1999.90
2022-09-10T09:18:26.276Z,1999.90
2022-09-10T09:19:26.286Z,1999.90
2022-09-10T09:20:26.262Z,1999.90
2022-09-10T09:21:26.306Z,1999.90
2022-09-10T09:22:26.251Z,1999.90
2022-09-10T09:23:26.263Z,1999.90
2022-09-10T09:24:26.227Z,1999.90
2022-09-10T09:25:26.228Z,1999.90
2022-09-10T09:26:26.221Z,1999.90
2022-09-10T09:27:26.281Z,1999.90
2022-09-10T09:28:26.187Z,1999.90
2022-09-10T09:29:26.168Z,1999.90
2022-09-10T09:30:26.156Z,1999.90
2022-09-10T09:31:26.207Z,1999.90
2022-09-10T09:32:26.182Z,1999.90
2022-09-10T09:33:26.109Z,1999.90
2022-09-10T09:34:26.154Z,1999.90
2022-09-10T09:35:26.116Z,1999.90
2022-09-10T09:36:26.090Z,1999.90
2022-09-10T09:37:26.126Z,1999.90
2022-09-10T09:38:26.079Z,1999.90
2022-09-10T09:39:26.066Z,1999.90
2022-09-10T09:40:26.056Z,1999.90
2022-09-10T09:41:26.088Z,1999.90
2022-09-10T09:42:26.041Z,1999.90
2022-09-10T09:43:26.012Z,1999.90
2022-09-10T09:44:26.015Z,1999.90
2022-09-10T09:45:25.995Z,1999.90
2022-09-10T09:46:26.011Z,1999.90
2022-09-10T09:47:25.995Z,1999.90
2022-09-10T09:48:25.960Z,1999.90
2022-09-10T09:49:25.951Z,1999.90
2022-09-10T09:50:25.954Z,1999.90
2022-09-10T09:51:25.971Z,1999.90
2022-09-10T09:52:25.934Z,1999.90
2022-09-10T09:53:25.914Z,1999.90
2022-09-10T09:55:26.889Z,1999.90
2022-09-10T09:56:25.921Z,1999.90
2022-09-10T09:57:25.879Z,1999.90
2022-09-10T09:58:25.848Z,1999.90
2022-09-10T09:59:25.844Z,1999.90
2022-09-10T10:00:25.840Z,1999.90
2022-09-10T10:01:25.847Z,1999.90
2022-09-10T10:02:25.977Z,1999.90
2022-09-10T10:03:25.792Z,1999.90
2022-09-10T10:04:25.787Z,1999.90
2022-09-10T10:05:25.790Z,1999.90
2022-09-10T10:06:25.792Z,1999.90
2022-09-10T10:07:25.844Z,1999.90
2022-09-10T10:08:25.754Z,1999.90
2022-09-10T10:09:25.760Z,1999.90
2022-09-10T10:10:25.721Z,1999.90
2022-09-10T10:11:25.717Z,1999.90
2022-09-10T10:12:25.757Z,1999.90
2022-09-10T10:13:25.702Z,1999.90
2022-09-10T10:14:25.679Z,1999.90
2022-09-10T10:15:25.671Z,1999.90
2022-09-10T10:16:25.673Z,1999.90
2022-09-10T10:17:25.692Z,1999.90
2022-09-10T10:18:25.652Z,1999.90
2022-09-10T10:19:25.650Z,1999.90
2022-09-10T10:20:25.615Z,1999.90
2022-09-10T10:21:25.608Z,1999.90
2022-09-10T10:22:25.645Z,1999.90
2022-09-10T10:23:30.465Z,1999.90
2022-09-10T10:24:26.574Z,1999.90
2022-09-10T10:25:25.577Z,1999.90
2022-09-10T10:26:25.571Z,1999.90
2022-09-10T10:27:25.593Z,1999.90
2022-09-10T10:28:25.536Z,1999.90
2022-09-10T10:29:25.529Z,1999.90
2022-09-10T10:30:25.523Z,1999.90
2022-09-10T10:31:25.513Z,1999.90
2022-09-10T10:32:25.531Z,1999.90
2022-09-10T10:33:25.483Z,1999.90
2022-09-10T10:34:25.446Z,1999.90
2022-09-10T10:35:25.465Z,1999.90
2022-09-10T10:36:25.452Z,1999.90
2022-09-10T10:37:25.492Z,1999.90
2022-09-10T10:38:25.444Z,1999.90
2022-09-10T10:39:25.432Z,1999.90
2022-09-10T10:40:25.437Z,1999.90
2022-09-10T10:41:25.410Z,1999.90
2022-09-10T10:42:25.429Z,1999.90
2022-09-10T10:43:25.382Z,1999.90
2022-09-10T10:44:25.355Z,1999.90
2022-09-10T10:45:25.383Z,1999.90
2022-09-10T10:46:25.420Z,1999.90
2022-09-10T10:47:25.375Z,1999.90
2022-09-10T10:48:25.315Z,1999.90
2022-09-10T10:49:25.321Z,1999.90
2022-09-10T10:50:25.296Z,1999.90
2022-09-10T10:51:25.313Z,1999.90
2022-09-10T10:52:25.332Z,1999.90
2022-09-10T10:53:25.298Z,1999.90
2022-09-10T10:54:25.245Z,1999.90
2022-09-10T10:55:25.267Z,1999.90
2022-09-10T10:56:25.249Z,1999.90
2022-09-10T10:57:25.271Z,1999.90
2022-09-10T10:58:25.189Z,1999.90
2022-09-10T10:59:25.215Z,1999.90
2022-09-10T11:00:25.188Z,1999.90
2022-09-10T11:01:25.227Z,1115.90
2022-09-10T11:02:25.220Z,1102.90
2022-09-10T11:03:25.190Z,1147.40
2022-09-10T11:04:25.171Z,1043.60
2022-09-10T11:05:25.147Z,986.90
2022-09-10T11:06:25.123Z,1069.30
2022-09-10T11:07:25.166Z,1004.40
2022-09-10T11:08:25.099Z,1089.40
2022-09-10T11:09:25.100Z,1169.20
2022-09-10T11:10:25.069Z,1189.70
2022-09-10T11:11:25.078Z,1191.40
2022-09-10T11:12:25.112Z,1201.40
2022-09-10T11:13:25.073Z,970.40
2022-09-10T11:14:25.039Z,350.20
2022-09-10T11:15:25.057Z,17.70
2022-09-10T11:16:25.022Z,13.90
2022-09-10T11:17:25.042Z,13.40
2022-09-10T11:18:25.024Z,15.20
2022-09-10T11:19:24.974Z,19.30
2022-09-10T11:20:28.923Z,26.90
2022-09-10T11:21:24.959Z,18.70
2022-09-10T11:22:24.974Z,32.70
2022-09-10T11:23:24.937Z,25.60
2022-09-10T11:24:24.965Z,33.40
2022-09-10T11:25:24.913Z,105.70
2022-09-10T11:26:24.963Z,151.40
2022-09-10T11:27:24.888Z,107.60
2022-09-10T11:28:24.910Z,169.00
2022-09-10T11:29:24.886Z,335.60
2022-09-10T11:30:24.847Z,419.70
2022-09-10T11:31:24.861Z,233.40
2022-09-10T11:32:24.864Z,229.90
2022-09-10T11:33:24.842Z,427.00
2022-09-10T11:34:24.813Z,360.90
2022-09-10T11:35:24.813Z,317.20
2022-09-10T11:36:24.814Z,248.90
2022-09-10T11:37:24.825Z,265.40
2022-09-10T11:38:24.779Z,216.70
2022-09-10T11:39:24.758Z,133.80
2022-09-10T11:40:24.773Z,240.40
2022-09-10T11:41:24.726Z,279.80
2022-09-10T11:42:24.786Z,485.10
2022-09-10T11:43:24.739Z,299.70
2022-09-10T11:44:24.705Z,184.40
2022-09-10T11:45:24.696Z,222.90
2022-09-10T11:46:24.741Z,276.30
2022-09-10T11:47:24.724Z,307.80
2022-09-10T11:48:24.667Z,157.60
2022-09-10T11:49:24.657Z,176.50
2022-09-10T11:50:24.701Z,62.40
2022-09-10T11:51:24.660Z,39.00
2022-09-10T11:52:24.672Z,40.50
2022-09-10T11:53:24.628Z,33.70
2022-09-10T11:54:24.618Z,42.90
2022-09-10T11:55:24.579Z,60.70
2022-09-10T11:56:24.605Z,28.90
2022-09-10T11:57:24.614Z,52.90
2022-09-10T11:58:24.569Z,50.20
2022-09-10T11:59:24.526Z,21.10
2022-09-10T12:00:24.520Z,25.00
2022-09-10T12:01:24.540Z,24.30
2022-09-10T12:02:24.624Z,50.40
2022-09-10T12:03:24.553Z,67.30
2022-09-10T12:04:24.482Z,33.80
2022-09-10T12:05:24.487Z,51.80
2022-09-10T12:06:24.492Z,76.00
2022-09-10T12:07:24.503Z,90.70
2022-09-10T12:08:24.438Z,98.20
2022-09-10T12:09:24.404Z,107.30
2022-09-10T12:10:24.429Z,119.10
2022-09-10T12:11:24.411Z,146.70
2022-09-10T12:12:24.446Z,145.10
2022-09-10T12:13:24.383Z,148.20
2022-09-10T12:14:24.393Z,135.70
2022-09-10T12:15:24.358Z,133.10
2022-09-10T12:16:24.385Z,129.10
2022-09-10T12:17:24.378Z,124.00
2022-09-10T12:18:24.319Z,131.30
2022-09-10T12:19:24.324Z,161.70
2022-09-10T12:20:24.293Z,177.80
2022-09-10T12:21:24.310Z,206.60
2022-09-10T12:22:24.337Z,236.40
2022-09-10T12:23:24.270Z,252.70
2022-09-10T12:24:24.276Z,257.20
2022-09-10T12:25:24.253Z,260.80
2022-09-10T12:26:24.273Z,242.50
2022-09-10T12:27:24.276Z,244.10
2022-09-10T12:28:24.234Z,236.80
2022-09-10T12:29:24.224Z,239.90
2022-09-10T12:30:24.216Z,226.40